createdAt,value
2023-04-15T00:00:07.493Z,3.1
2023-04-15T00:05:06.712Z,2
2023-04-15T00:10:06.968Z,1.8
2023-04-15T00:15:06.659Z,15.2
2023-04-15T00:20:06.413Z,2
2023-04-15T00:25:07.286Z,2.3
2023-04-15T00:30:06.501Z,1.8
2023-04-15T00:35:06.389Z,2.3
2023-04-15T00:40:06.853Z,2
2023-04-15T00:45:06.985Z,2.1
2023-04-15T00:50:06.457Z,2.3
2023-04-15T00:55:06.607Z,1.4
2023-04-15T01:00:06.983Z,1.2
2023-04-15T01:05:06.554Z,1.8
2023-04-15T01:10:07.148Z,1.8
2023-04-15T01:15:06.522Z,1.3
2023-04-15T01:20:06.840Z,0.8
2023-04-15T01:25:07.198Z,1.4
2023-04-15T01:30:06.355Z,2
2023-04-15T01:35:06.595Z,2
2023-04-15T01:40:06.730Z,1.7
2023-04-15T01:45:07.030Z,2.4
2023-04-15T01:50:06.258Z,2.8
2023-04-15T01:55:06.486Z,2.9
2023-04-15T02:00:06.856Z,2.8
2023-04-15T02:05:07.181Z,3.5
2023-04-15T02:10:07.207Z,4.2
2023-04-15T02:15:06.372Z,2.8
2023-04-15T02:20:06.547Z,4.2
2023-04-15T02:25:06.745Z,4.2
2023-04-15T02:30:06.987Z,4.4
2023-04-15T02:35:07.172Z,3.3
2023-04-15T02:40:06.304Z,5.7
2023-04-15T02:45:06.400Z,4.3
2023-04-15T02:50:06.550Z,3.2
2023-04-15T02:55:06.875Z,2.6
2023-04-15T03:00:07.164Z,1.7
2023-04-15T03:05:06.944Z,3.1
2023-04-15T03:10:07.203Z,1.8
2023-04-15T03:15:06.292Z,1.5
2023-04-15T03:20:06.558Z,2.5
2023-04-15T03:25:06.818Z,1.8
2023-04-15T03:30:06.967Z,1.8
2023-04-15T03:35:07.320Z,1.6
2023-04-15T03:40:07.413Z,2.2
2023-04-15T03:45:07.187Z,1.9
2023-04-15T03:50:07.028Z,1.9
2023-04-15T03:55:06.931Z,2.2
2023-04-15T04:00:07.052Z,3.7
2023-04-15T04:05:06.992Z,3.8
2023-04-15T04:10:07.226Z,7
2023-04-15T04:15:06.250Z,6
2023-04-15T04:20:07.248Z,8.2
2023-04-15T04:25:07.054Z,6
2023-04-15T04:30:07.166Z,6.8
2023-04-15T04:35:06.519Z,7.1
2023-04-15T04:40:06.824Z,7
2023-04-15T04:45:07.175Z,5.7
2023-04-15T04:50:06.378Z,5.1
2023-04-15T04:55:06.689Z,5.1
2023-04-15T05:00:06.940Z,5.6
2023-04-15T05:05:06.427Z,3.8
2023-04-15T05:10:06.879Z,4.9
2023-04-15T05:15:06.991Z,3.6
2023-04-15T05:20:06.235Z,3.4
2023-04-15T05:25:06.538Z,2.3
2023-04-15T05:30:06.739Z,4.3
2023-04-15T05:35:06.617Z,5.3
2023-04-15T05:40:07.210Z,7.3
2023-04-15T05:45:06.490Z,8.5
2023-04-15T05:50:06.700Z,11.3
2023-04-15T05:55:06.925Z,9.6
2023-04-15T06:00:07.304Z,9.2
2023-04-15T06:05:06.793Z,7.9
2023-04-15T06:10:07.186Z,9.7
2023-04-15T06:15:06.400Z,9.7
2023-04-15T06:20:06.577Z,11.1
2023-04-15T06:25:06.574Z,11.1
2023-04-15T06:30:06.618Z,13.1
2023-04-15T06:35:06.945Z,11.3
2023-04-15T06:40:07.079Z,9.7
2023-04-15T06:45:06.191Z,7.4
2023-04-15T06:50:06.308Z,6.5
2023-04-15T06:55:06.472Z,3.2
2023-04-15T07:00:06.977Z,4.4
2023-04-15T07:05:07.015Z,3.9
2023-04-15T07:10:06.974Z,4
2023-04-15T07:15:06.363Z,3.8
2023-04-15T07:20:06.761Z,3.3
2023-04-15T07:25:06.959Z,4.5
2023-04-15T07:30:06.304Z,3.9
2023-04-15T07:35:06.439Z,6.1
2023-04-15T07:40:06.805Z,6.3
2023-04-15T07:45:06.905Z,5.5
2023-04-15T07:50:06.981Z,6.2
2023-04-15T07:55:07.006Z,3.1
2023-04-15T08:00:06.371Z,2.9
2023-04-15T08:05:06.829Z,2.3
2023-04-15T08:10:07.073Z,2.5
2023-04-15T08:15:07.113Z,5.3
2023-04-15T08:20:06.392Z,4.9
2023-04-15T08:25:06.595Z,1.1
2023-04-15T08:30:07.066Z,2
2023-04-15T08:35:06.995Z,2
2023-04-15T08:40:07.167Z,1.9
2023-04-15T08:45:07.052Z,1.9
2023-04-15T08:50:07.161Z,1.7
2023-04-15T08:55:06.812Z,2.2
2023-04-15T09:00:06.785Z,2.8
2023-04-15T09:05:06.306Z,2.1
2023-04-15T09:10:06.554Z,1.9
2023-04-15T09:15:06.733Z,2.2
2023-04-15T09:20:07.189Z,2.1
2023-04-15T09:25:06.654Z,2.5
2023-04-15T09:30:06.571Z,2.2
2023-04-15T09:35:06.757Z,1.6
2023-04-15T09:40:06.910Z,1.8
2023-04-15T09:45:07.055Z,2.4
2023-04-15T09:50:06.257Z,2.3
2023-04-15T09:55:06.543Z,2
2023-04-15T10:00:06.867Z,2
2023-04-15T10:05:06.417Z,1.7
2023-04-15T10:10:07.239Z,1.6
2023-04-15T10:15:06.353Z,1.5
2023-04-15T10:20:06.475Z,1.1
2023-04-15T10:25:06.937Z,1.1
2023-04-15T10:30:07.224Z,1.8
2023-04-15T10:35:06.696Z,1.7
2023-04-15T10:40:06.962Z,1.9
2023-04-15T10:45:07.057Z,1.9
2023-04-15T10:50:06.564Z,5.7
2023-04-15T10:55:06.810Z,1.2
2023-04-15T11:00:07.038Z,1.6
2023-04-15T11:05:06.322Z,2.1
2023-04-15T11:10:06.289Z,1.9
2023-04-15T11:15:06.709Z,1.8
2023-04-15T11:20:06.866Z,1.8
2023-04-15T11:25:07.068Z,2.1
2023-04-15T11:30:06.415Z,1.7
2023-04-15T11:35:06.857Z,1.2
2023-04-15T11:40:07.104Z,2.3
2023-04-15T11:45:06.285Z,2.1
2023-04-15T11:50:06.547Z,1.1
2023-04-15T11:55:06.571Z,1.2
2023-04-15T12:00:07.240Z,1.6
2023-04-15T12:05:06.506Z,1.4
2023-04-15T12:10:06.893Z,1.9
2023-04-15T12:15:06.934Z,3
2023-04-15T12:20:06.820Z,2.3
2023-04-15T12:25:06.655Z,1.6
2023-04-15T12:30:06.955Z,1.6
2023-04-15T12:35:07.127Z,2.4
2023-04-15T12:40:06.365Z,1.6
2023-04-15T12:45:06.402Z,1.3
2023-04-15T12:50:06.611Z,1.8
2023-04-15T12:55:06.722Z,1.9
2023-04-15T13:00:07.203Z,1.3
2023-04-15T13:05:07.088Z,1.8
2023-04-15T13:10:06.409Z,2.1
2023-04-15T13:15:06.703Z,1.9
2023-04-15T13:20:06.885Z,1.4
2023-04-15T13:25:07.105Z,2.5
2023-04-15T13:30:06.231Z,2.1
2023-04-15T13:35:06.393Z,5.3
2023-04-15T13:40:06.757Z,2
2023-04-15T13:45:06.891Z,2.3
2023-04-15T13:50:06.966Z,3
2023-04-15T13:55:07.178Z,3.2
2023-04-15T14:00:06.516Z,2.5
2023-04-15T14:05:06.876Z,3.4
2023-04-15T14:10:07.006Z,2.9
2023-04-15T14:15:06.839Z,3
2023-04-15T14:20:06.916Z,2.7
2023-04-15T14:25:07.066Z,4.1
2023-04-15T14:30:07.175Z,3.5
2023-04-15T14:35:06.667Z,2.9
2023-04-15T14:40:06.779Z,4.3
2023-04-15T14:45:06.887Z,3.9
2023-04-15T14:50:06.310Z,5.6
2023-04-15T14:55:06.884Z,7.1
2023-04-15T15:00:07.209Z,13
2023-04-15T15:05:06.484Z,16.3
2023-04-15T15:10:06.875Z,11.9
2023-04-15T15:15:06.309Z,14.4
2023-04-15T15:20:06.640Z,13.7
2023-04-15T15:25:06.885Z,15.3
2023-04-15T15:30:07.001Z,16.4
2023-04-15T15:35:07.178Z,16.9
2023-04-15T15:40:06.452Z,13.1
2023-04-15T15:45:06.331Z,11.4
2023-04-15T15:50:06.916Z,9.5
2023-04-15T15:55:07.086Z,8.7
2023-04-15T16:00:06.732Z,7.5
2023-04-15T16:05:06.467Z,9.4
2023-04-15T16:10:06.711Z,8
2023-04-15T16:15:06.752Z,4.8
2023-04-15T16:20:06.896Z,4.7
2023-04-15T16:25:06.902Z,6.3
2023-04-15T16:30:07.131Z,6.4
2023-04-15T16:35:06.169Z,6.9
2023-04-15T16:40:06.229Z,4.8
2023-04-15T16:45:06.229Z,4.9
2023-04-15T16:50:06.472Z,5.5
2023-04-15T16:55:07.131Z,5.9
2023-04-15T17:00:07.285Z,15.7
2023-04-15T17:05:06.863Z,24.7
2023-04-15T17:10:06.944Z,8
2023-04-15T17:15:07.253Z,7.3
2023-04-15T17:20:06.305Z,5.2
2023-04-15T17:25:06.577Z,4.3
2023-04-15T17:30:06.842Z,3.2
2023-04-15T17:35:06.965Z,3.6
2023-04-15T17:40:07.114Z,6.2
2023-04-15T17:45:06.970Z,24.4
2023-04-15T17:50:07.081Z,29.5
2023-04-15T17:55:06.351Z,24.1
2023-04-15T18:00:06.880Z,20.8
2023-04-15T18:05:06.456Z,16.2
2023-04-15T18:10:06.755Z,20.8
2023-04-15T18:15:06.874Z,31.8
2023-04-15T18:20:06.565Z,23.5
2023-04-15T18:25:06.830Z,29.8
2023-04-15T18:30:07.113Z,33.4
2023-04-15T18:35:06.577Z,33.2
2023-04-15T18:40:06.778Z,34
2023-04-15T18:45:07.101Z,38
2023-04-15T18:50:06.377Z,28.7
2023-04-15T18:55:06.426Z,26.3
2023-04-15T19:00:06.819Z,21.8
2023-04-15T19:05:06.764Z,19.4
2023-04-15T19:10:06.959Z,31.1
2023-04-15T19:15:07.116Z,40.9
2023-04-15T19:20:06.407Z,36.8
2023-04-15T19:25:07.154Z,30.5
2023-04-15T19:30:07.231Z,34
2023-04-15T19:35:06.382Z,21.4
2023-04-15T19:40:06.565Z,21.3
2023-04-15T19:45:06.657Z,23.7
2023-04-15T19:50:07.021Z,34
2023-04-15T19:55:06.279Z,28.7
2023-04-15T20:00:06.659Z,26.4
2023-04-15T20:05:07.132Z,20.3
2023-04-15T20:10:06.319Z,20.5
2023-04-15T20:15:06.515Z,16.2
2023-04-15T20:20:06.672Z,15.2
2023-04-15T20:25:07.016Z,14.2
2023-04-15T20:30:07.149Z,17.1
2023-04-15T20:35:06.340Z,15
2023-04-15T20:40:06.556Z,13.9
2023-04-15T20:45:06.442Z,12.7
2023-04-15T20:50:06.660Z,11.6
2023-04-15T20:55:06.764Z,12
2023-04-15T21:00:07.098Z,12.9
2023-04-15T21:05:06.220Z,13.9
2023-04-15T21:10:06.257Z,12.2
2023-04-15T21:15:06.344Z,14.5
2023-04-15T21:20:06.417Z,12
2023-04-15T21:25:06.668Z,10.6
2023-04-15T21:30:06.861Z,8.5
2023-04-15T21:35:06.980Z,10
2023-04-15T21:40:06.246Z,10.6
2023-04-15T21:45:06.405Z,11.5
2023-04-15T21:50:06.500Z,11.3
2023-04-15T21:55:06.740Z,12.3
2023-04-15T22:00:06.996Z,12.3
2023-04-15T22:05:07.002Z,11.6
2023-04-15T22:10:06.351Z,18.1
2023-04-15T22:15:06.727Z,15.6
2023-04-15T22:20:07.053Z,9.7
2023-04-15T22:25:06.275Z,9.8
2023-04-15T22:30:06.360Z,8.4
2023-04-15T22:35:06.741Z,8.8
2023-04-15T22:40:06.938Z,9
2023-04-15T22:45:06.964Z,10.7
2023-04-15T22:50:07.072Z,9.9
2023-04-15T22:55:07.190Z,12
2023-04-15T23:00:06.432Z,7.9
2023-04-15T23:05:08.156Z,7.3
2023-04-15T23:10:06.716Z,7.8
2023-04-15T23:15:07.203Z,7.7
2023-04-15T23:20:06.509Z,8.6
2023-04-15T23:25:06.619Z,7.8
2023-04-15T23:30:06.817Z,11.9
2023-04-15T23:35:06.957Z,12.7
2023-04-15T23:40:07.103Z,11.6
2023-04-15T23:45:07.226Z,12.7
2023-04-15T23:50:06.530Z,16.4
2023-04-15T23:55:06.666Z,15.7
